createdAt,value
2018-12-13T00:00:24.773Z,100903.92
2018-12-13T00:01:02.244Z,100908.52
2018-12-13T00:01:39.191Z,100907.44
2018-12-13T00:02:16.060Z,100911.20
2018-12-13T00:02:52.869Z,100910.66
2018-12-13T00:03:29.655Z,100908.50
2018-12-13T00:04:06.631Z,100911.45
2018-12-13T00:04:43.428Z,100914.16
2018-12-13T00:05:20.315Z,100915.77
2018-12-13T00:05:57.221Z,100910.92
2018-12-13T00:06:34.278Z,100915.77
2018-12-13T00:07:11.092Z,100910.38
2018-12-13T00:07:47.860Z,100911.98
2018-12-13T00:08:25.712Z,100914.14
2018-12-13T00:09:02.557Z,100915.48
2018-12-13T00:09:39.533Z,100909.56
2018-12-13T00:10:16.503Z,100920.59
2018-12-13T00:10:53.310Z,100922.20
2018-12-13T00:11:30.098Z,100916.83
2018-12-13T00:12:07.005Z,100911.98
2018-12-13T00:12:43.774Z,100916.83
2018-12-13T00:13:20.579Z,100915.74
2018-12-13T00:13:57.513Z,100914.94
2018-12-13T00:14:34.347Z,100921.39
2018-12-13T00:15:11.204Z,100922.47
2018-12-13T00:15:48.197Z,100926.49
2018-12-13T00:16:25.010Z,100921.37
2018-12-13T00:17:01.845Z,100924.05
2018-12-13T00:17:38.621Z,100923.52
2018-12-13T00:18:15.452Z,100925.16
2018-12-13T00:18:52.399Z,100923.30
2018-12-13T00:19:29.397Z,100929.75
2018-12-13T00:20:06.358Z,100926.24
2018-12-13T00:20:43.160Z,100926.23
2018-12-13T00:21:20.012Z,100923.80
2018-12-13T00:21:56.848Z,100918.69
2018-12-13T00:22:33.702Z,100921.91
2018-12-13T00:23:10.546Z,100924.32
2018-12-13T00:23:47.423Z,100924.31
2018-12-13T00:24:24.426Z,100926.19
2018-12-13T00:25:01.256Z,100918.63
2018-12-13T00:25:38.082Z,100926.47
2018-12-13T00:26:15.114Z,100924.84
2018-12-13T00:26:51.880Z,100926.98
2018-12-13T00:27:28.762Z,100926.70
2018-12-13T00:28:05.856Z,100925.63
2018-12-13T00:28:42.779Z,100929.14
2018-12-13T00:29:19.676Z,100927.52
2018-12-13T00:29:56.609Z,100930.20
2018-12-13T00:30:33.516Z,100936.67
2018-12-13T00:31:10.397Z,100938.55
2018-12-13T00:31:47.316Z,100936.13
2018-12-13T00:32:24.231Z,100940.97
2018-12-13T00:33:01.061Z,100935.04
2018-12-13T00:33:37.979Z,100943.65
2018-12-13T00:34:14.864Z,100941.77
2018-12-13T00:34:51.776Z,100947.15
2018-12-13T00:35:28.589Z,100954.41
2018-12-13T00:36:05.450Z,100951.98
2018-12-13T00:36:42.264Z,100956.83
2018-12-13T00:37:19.060Z,100957.63
2018-12-13T00:37:55.864Z,100956.01
2018-12-13T00:38:32.667Z,100959.51
2018-12-13T00:39:10.321Z,100963.81
2018-12-13T00:39:47.177Z,100963.00
2018-12-13T00:40:23.950Z,100965.70
2018-12-13T00:41:00.939Z,100964.62
2018-12-13T00:41:37.865Z,100969.45
2018-12-13T00:42:14.773Z,100969.72
2018-12-13T00:42:51.668Z,100968.09
2018-12-13T00:43:28.539Z,100973.18
2018-12-13T00:44:05.356Z,100972.11
2018-12-13T00:44:42.155Z,100973.45
2018-12-13T00:45:18.937Z,100972.37
2018-12-13T00:45:55.738Z,100973.71
2018-12-13T00:46:32.587Z,100971.80
2018-12-13T00:47:09.450Z,100977.98
2018-12-13T00:47:46.305Z,100984.70
2018-12-13T00:48:23.119Z,100980.91
2018-12-13T00:49:00.043Z,100980.61
2018-12-13T00:49:36.888Z,100983.05
2018-12-13T00:50:13.679Z,100981.12
2018-12-13T00:50:50.453Z,100983.80
2018-12-13T00:51:27.403Z,100986.20
2018-12-13T00:52:04.306Z,100984.55
2018-12-13T00:52:41.098Z,100990.48
2018-12-13T00:53:17.932Z,100988.28
2018-12-13T00:53:54.810Z,100985.28
2018-12-13T00:54:31.632Z,100986.08
2018-12-13T00:55:09.421Z,100995.77
2018-12-13T00:55:46.302Z,100996.28
2018-12-13T00:56:23.212Z,100993.58
2018-12-13T00:57:00.009Z,100988.70
2018-12-13T00:57:36.840Z,100981.67
2018-12-13T00:58:13.747Z,100985.39
2018-12-13T00:58:50.620Z,100983.99
2018-12-13T00:59:27.521Z,100985.84
2018-12-13T01:00:04.407Z,100974.53
2018-12-13T01:00:41.144Z,100990.36
2018-12-13T01:01:18.104Z,100984.11
2018-12-13T01:01:55.029Z,100983.80
2018-12-13T01:02:31.865Z,100983.23
2018-12-13T01:03:08.795Z,100983.78
2018-12-13T01:03:45.767Z,100984.30
2018-12-13T01:04:22.667Z,100982.63
2018-12-13T01:04:59.653Z,100983.41
2018-12-13T01:05:37.673Z,100984.45
2018-12-13T01:06:14.481Z,100980.08
2018-12-13T01:06:51.357Z,100983.30
2018-12-13T01:07:28.269Z,100988.64
2018-12-13T01:08:05.153Z,100981.34
2018-12-13T01:08:42.004Z,100988.27
2018-12-13T01:09:53.960Z,100993.02
2018-12-13T01:10:31.383Z,100996.76
2018-12-13T01:11:08.238Z,100992.38
2018-12-13T01:11:45.145Z,100987.78
2018-12-13T01:12:22.181Z,101005.53
2018-12-13T01:12:59.043Z,100995.23
2018-12-13T01:13:36.007Z,101002.77
2018-12-13T01:14:12.728Z,101003.24
2018-12-13T01:14:49.739Z,100999.19
2018-12-13T01:15:28.856Z,101000.47
2018-12-13T01:16:05.753Z,100998.79
2018-12-13T01:16:42.678Z,100999.59
2018-12-13T01:17:19.563Z,100997.70
2018-12-13T01:17:56.424Z,100997.91
2018-12-13T01:18:33.187Z,100998.93
2018-12-13T01:19:09.975Z,100998.34
2018-12-13T01:19:46.745Z,101003.94
2018-12-13T01:20:23.668Z,101006.05
2018-12-13T01:21:00.544Z,101001.44
2018-12-13T01:21:37.396Z,100999.50
2018-12-13T01:22:14.277Z,100994.94
2018-12-13T01:22:51.151Z,101000.52
2018-12-13T01:23:28.016Z,101008.04
2018-12-13T01:24:04.817Z,100997.77
2018-12-13T01:24:42.209Z,101005.50
2018-12-13T01:25:19.088Z,101010.33
2018-12-13T01:25:56.017Z,101007.61
2018-12-13T01:26:32.939Z,101013.70
2018-12-13T01:27:09.701Z,101013.92
2018-12-13T01:27:46.579Z,101018.45
2018-12-13T01:28:23.418Z,101017.89
2018-12-13T01:29:00.204Z,101012.42
2018-12-13T01:29:37.090Z,101009.93
2018-12-13T01:30:13.986Z,101008.23
2018-12-13T01:30:50.765Z,101012.49
2018-12-13T01:31:27.665Z,101010.60
2018-12-13T01:32:04.522Z,101016.81
2018-12-13T01:32:41.359Z,101009.98
2018-12-13T01:33:18.288Z,101020.22
2018-12-13T01:33:55.087Z,101016.70
2018-12-13T01:34:32.160Z,101010.29
2018-12-13T01:35:09.276Z,101011.39
2018-12-13T01:35:46.286Z,101014.36
2018-12-13T01:36:23.200Z,101017.31
2018-12-13T01:37:00.100Z,101016.81
2018-12-13T01:37:36.990Z,101009.34
2018-12-13T01:38:15.095Z,101009.93
2018-12-13T01:38:51.907Z,101010.52
2018-12-13T01:39:28.776Z,101012.42
2018-12-13T01:40:05.767Z,101010.48
2018-12-13T01:40:43.605Z,101008.20
2018-12-13T01:41:20.325Z,101010.86
2018-12-13T01:41:57.133Z,101014.16
2018-12-13T01:42:34.038Z,101012.89
2018-12-13T01:43:10.832Z,101014.84
2018-12-13T01:43:47.696Z,101011.92
2018-12-13T01:44:24.589Z,101015.73
2018-12-13T01:45:01.397Z,101028.51
2018-12-13T01:45:38.256Z,101023.91
2018-12-13T01:46:15.102Z,101020.30
2018-12-13T01:46:51.929Z,101021.09
2018-12-13T01:47:28.851Z,101022.11
2018-12-13T01:48:05.753Z,101025.33
2018-12-13T01:48:42.596Z,101024.73
2018-12-13T01:49:19.519Z,101018.22
2018-12-13T01:49:56.288Z,101025.98
2018-12-13T01:50:34.048Z,101024.88
2018-12-13T01:51:10.811Z,101024.53
2018-12-13T01:51:47.682Z,101024.98
2018-12-13T01:52:24.588Z,101018.17
2018-12-13T01:53:01.493Z,101024.59
2018-12-13T01:53:38.374Z,101026.20
2018-12-13T01:54:15.187Z,101019.94
2018-12-13T01:54:52.120Z,101026.11
2018-12-13T01:55:28.973Z,101028.00
2018-12-13T01:56:05.776Z,101021.48
2018-12-13T01:56:42.589Z,101017.17
2018-12-13T01:57:19.422Z,101019.59
2018-12-13T01:57:56.370Z,101017.98
2018-12-13T01:58:33.239Z,101024.19
2018-12-13T01:59:10.061Z,101023.34
2018-12-13T01:59:46.885Z,101019.83
2018-12-13T02:00:23.734Z,101026.05
2018-12-13T02:01:00.524Z,101024.70
2018-12-13T02:01:37.295Z,101026.85
2018-12-13T02:02:14.100Z,101027.66
2018-12-13T02:02:50.884Z,101026.55
2018-12-13T02:03:27.853Z,101029.01
2018-12-13T02:04:04.790Z,101030.27
2018-12-13T02:04:41.689Z,101027.56
2018-12-13T02:05:18.578Z,101031.88
2018-12-13T02:05:55.367Z,101032.98
2018-12-13T02:06:32.329Z,101035.69
2018-12-13T02:07:09.281Z,101032.42
2018-12-13T02:07:46.049Z,101032.73
2018-12-13T02:08:22.902Z,101035.69
2018-12-13T02:08:59.890Z,101036.49
2018-12-13T02:09:36.795Z,101035.14
2018-12-13T02:10:13.644Z,101035.14
2018-12-13T02:10:50.491Z,101037.64
2018-12-13T02:11:27.428Z,101033.92
2018-12-13T02:12:04.294Z,101038.05
2018-12-13T02:12:41.187Z,101042.20
2018-12-13T02:13:18.083Z,101041.70
2018-12-13T02:13:55.029Z,101040.94
2018-12-13T02:14:32.167Z,101040.19
2018-12-13T02:15:09.259Z,101045.09
2018-12-13T02:15:46.118Z,101043.83
2018-12-13T02:16:23.008Z,101044.09
2018-12-13T02:16:59.869Z,101038.97
2018-12-13T02:17:36.753Z,101041.73
2018-12-13T02:18:13.488Z,101040.39
2018-12-13T02:18:50.291Z,101040.39
2018-12-13T02:19:27.280Z,101039.23
2018-12-13T02:20:04.277Z,101039.93
2018-12-13T02:20:41.190Z,101037.98
2018-12-13T02:21:18.016Z,101038.19
2018-12-13T02:21:54.959Z,101035.14
2018-12-13T02:22:31.853Z,101036.19
2018-12-13T02:23:08.687Z,101034.84
2018-12-13T02:23:45.598Z,101039.41
2018-12-13T02:24:22.424Z,101041.56
2018-12-13T02:24:59.315Z,101038.05
2018-12-13T02:25:36.252Z,101036.44
2018-12-13T02:26:14.074Z,101036.39
2018-12-13T02:26:50.922Z,101036.70
2018-12-13T02:27:27.826Z,101035.34
2018-12-13T02:28:04.828Z,101035.09
2018-12-13T02:28:41.648Z,101034.33
2018-12-13T02:29:18.461Z,101034.08
2018-12-13T02:29:55.309Z,101038.39
2018-12-13T02:30:32.249Z,101041.10
2018-12-13T02:31:09.099Z,101037.55
2018-12-13T02:31:45.905Z,101039.66
2018-12-13T02:32:22.809Z,101040.44
2018-12-13T02:32:59.605Z,101039.30
2018-12-13T02:33:36.391Z,101039.75
2018-12-13T02:34:13.343Z,101039.66
2018-12-13T02:34:50.059Z,101039.56
2018-12-13T02:35:26.994Z,101043.84
2018-12-13T02:36:03.870Z,101035.95
2018-12-13T02:36:40.799Z,101036.11
2018-12-13T02:37:17.739Z,101036.27
2018-12-13T02:37:54.651Z,101035.11
2018-12-13T02:38:31.615Z,101034.68
2018-12-13T02:39:08.962Z,101040.80
2018-12-13T02:39:45.713Z,101038.34
2018-12-13T02:40:22.591Z,101040.75
2018-12-13T02:40:59.567Z,101037.67
2018-12-13T02:41:36.391Z,101034.41
2018-12-13T02:42:13.304Z,101035.77
2018-12-13T02:42:50.236Z,101040.31
2018-12-13T02:43:27.159Z,101044.02
2018-12-13T02:44:04.020Z,101037.44
2018-12-13T02:44:40.903Z,101041.42
2018-12-13T02:45:17.804Z,101040.81
2018-12-13T02:45:54.675Z,101039.09
2018-12-13T02:46:31.441Z,101035.01
2018-12-13T02:47:08.321Z,101042.23
2018-12-13T02:47:45.198Z,101035.94
2018-12-13T02:48:22.174Z,101035.58
2018-12-13T02:49:08.112Z,101033.98
2018-12-13T02:49:44.962Z,101038.59
2018-12-13T02:50:22.025Z,101033.59
2018-12-13T02:50:58.959Z,101033.92
2018-12-13T02:51:35.796Z,101028.50
2018-12-13T02:52:12.563Z,101032.30
2018-12-13T02:52:49.440Z,101037.61
2018-12-13T02:53:26.346Z,101031.32
2018-12-13T02:54:03.244Z,101035.83
2018-12-13T02:54:40.236Z,101033.61
2018-12-13T02:55:17.180Z,101032.75
2018-12-13T02:55:54.061Z,101033.74
2018-12-13T02:56:30.957Z,101039.08
2018-12-13T02:57:07.739Z,101034.15
2018-12-13T02:57:44.741Z,101036.50
2018-12-13T02:58:21.656Z,101036.63
2018-12-13T02:58:58.538Z,101029.99
2018-12-13T02:59:35.400Z,101032.37
2018-12-13T03:00:12.252Z,101034.72
2018-12-13T03:00:49.013Z,101030.27
2018-12-13T03:01:25.813Z,101022.92
2018-12-13T03:02:02.697Z,101028.05
2018-12-13T03:02:39.493Z,101037.17
2018-12-13T03:03:16.481Z,101027.98
2018-12-13T03:03:53.855Z,101037.17
2018-12-13T03:04:30.740Z,101036.93
2018-12-13T03:05:08.078Z,101035.57
2018-12-13T03:05:44.794Z,101029.28
2018-12-13T03:06:21.807Z,101033.35
2018-12-13T03:06:58.663Z,101033.04
2018-12-13T03:07:35.436Z,101028.10
2018-12-13T03:08:12.305Z,101029.98
2018-12-13T03:08:49.167Z,101035.35
2018-12-13T03:09:25.997Z,101035.78
2018-12-13T03:10:02.938Z,101035.47
2018-12-13T03:10:39.728Z,101033.00
2018-12-13T03:11:16.559Z,101031.08
2018-12-13T03:11:53.461Z,101029.16
2018-12-13T03:12:30.453Z,101030.84
2018-12-13T03:13:07.321Z,101034.29
2018-12-13T03:13:44.203Z,101032.86
2018-12-13T03:14:21.021Z,101029.77
2018-12-13T03:14:57.901Z,101028.91
2018-12-13T03:15:34.773Z,101025.34
2018-12-13T03:16:11.636Z,101024.75
2018-12-13T03:16:48.446Z,101021.97
2018-12-13T03:17:25.321Z,101024.86
2018-12-13T03:18:02.091Z,101028.70
2018-12-13T03:18:38.965Z,101022.15
2018-12-13T03:19:15.852Z,101024.86
2018-12-13T03:19:52.848Z,101030.30
2018-12-13T03:20:29.715Z,101021.03
2018-12-13T03:21:06.615Z,101017.83
2018-12-13T03:21:43.457Z,101021.03
2018-12-13T03:22:20.329Z,101022.64
2018-12-13T03:22:57.259Z,101017.69
2018-12-13T03:23:34.124Z,101020.16
2018-12-13T03:24:10.922Z,101020.83
2018-12-13T03:24:47.839Z,101020.37
2018-12-13T03:25:24.783Z,101018.06
2018-12-13T03:26:01.647Z,101014.99
2018-12-13T03:26:38.525Z,101021.83
2018-12-13T03:27:15.343Z,101019.73
2018-12-13T03:27:52.169Z,101020.37
2018-12-13T03:28:29.038Z,101020.86
2018-12-13T03:29:05.984Z,101023.33
2018-12-13T03:29:42.903Z,101019.98
2018-12-13T03:30:19.853Z,101023.15
2018-12-13T03:30:56.668Z,101019.11
2018-12-13T03:31:33.634Z,101022.59
2018-12-13T03:32:10.482Z,101023.32
2018-12-13T03:32:47.316Z,101013.17
2018-12-13T03:33:24.427Z,101017.73
2018-12-13T03:34:01.320Z,101019.61
2018-12-13T03:34:38.139Z,101014.17
2018-12-13T03:35:15.065Z,101023.69
2018-12-13T03:35:51.962Z,101016.06
2018-12-13T03:36:28.889Z,101012.81
2018-12-13T03:37:05.763Z,101015.22
2018-12-13T03:37:42.643Z,101013.34
2018-12-13T03:38:20.196Z,101014.17
2018-12-13T03:38:56.981Z,101017.01
2018-12-13T03:39:33.924Z,101019.00
2018-12-13T03:40:10.778Z,101011.16
2018-12-13T03:40:47.717Z,101014.30
2018-12-13T03:41:24.624Z,101016.61
2018-12-13T03:42:01.959Z,101010.58
2018-12-13T03:42:38.861Z,101012.25
2018-12-13T03:43:15.709Z,101008.42
2018-12-13T03:43:52.550Z,101016.58
2018-12-13T03:44:29.415Z,101012.25
2018-12-13T03:45:06.409Z,101007.38
2018-12-13T03:45:43.202Z,101006.89
2018-12-13T03:46:20.101Z,101001.49
2018-12-13T03:46:57.031Z,101009.72
2018-12-13T03:47:33.929Z,101008.05
2018-12-13T03:48:10.812Z,101002.81
2018-12-13T03:48:47.706Z,101004.97
2018-12-13T03:49:24.566Z,101002.74
2018-12-13T03:50:01.444Z,101003.23
2018-12-13T03:50:38.280Z,101006.44
2018-12-13T03:51:15.263Z,101007.31
2018-12-13T03:51:52.214Z,101004.34
2018-12-13T03:52:29.110Z,101000.52
2018-12-13T03:53:06.057Z,101006.09
2018-12-13T03:53:42.915Z,101004.28
2018-12-13T03:54:19.732Z,101000.91
2018-12-13T03:54:56.552Z,101002.88
2018-12-13T03:55:33.433Z,101007.09
2018-12-13T03:56:10.291Z,101000.91
2018-12-13T03:56:47.206Z,101009.05
2018-12-13T03:57:24.643Z,101002.02
2018-12-13T03:58:01.400Z,101005.28
2018-12-13T03:58:38.200Z,101005.53
2018-12-13T03:59:15.387Z,101001.66
2018-12-13T03:59:52.312Z,101003.27
2018-12-13T04:00:29.131Z,100995.12
2018-12-13T04:01:05.985Z,100994.36
2018-12-13T04:01:43.661Z,100997.52
2018-12-13T04:02:20.483Z,100996.16
2018-12-13T04:02:57.279Z,100997.59
2018-12-13T04:03:34.457Z,100988.36
2018-12-13T04:04:11.352Z,100993.30
2018-12-13T04:04:48.169Z,100993.34
2018-12-13T04:05:25.099Z,100993.97
2018-12-13T04:06:02.035Z,100988.29
2018-12-13T04:06:38.881Z,100993.23
2018-12-13T04:07:15.814Z,100990.03
2018-12-13T04:07:52.767Z,100993.86
2018-12-13T04:08:29.561Z,100991.14
2018-12-13T04:09:07.517Z,100988.67
2018-12-13T04:09:44.470Z,100991.31
2018-12-13T04:10:22.288Z,100991.74
2018-12-13T04:10:59.121Z,100985.16
2018-12-13T04:11:35.950Z,100989.27
2018-12-13T04:12:13.983Z,100987.80
2018-12-13T04:12:50.840Z,100989.37
2018-12-13T04:13:27.740Z,100988.81
2018-12-13T04:14:04.602Z,100988.19
2018-12-13T04:14:41.551Z,100986.69
2018-12-13T04:15:18.590Z,100984.45
2018-12-13T04:15:55.525Z,100983.34
2018-12-13T04:16:32.502Z,100981.74
2018-12-13T04:17:09.329Z,100977.42
2018-12-13T04:17:46.099Z,100975.09
2018-12-13T04:18:22.914Z,100971.33
2018-12-13T04:18:59.786Z,100970.28
2018-12-13T04:19:37.785Z,100971.40
2018-12-13T04:20:14.665Z,100971.64
2018-12-13T04:20:51.681Z,100974.05
2018-12-13T04:21:28.546Z,100973.97
2018-12-13T04:22:05.525Z,100972.62
2018-12-13T04:22:42.482Z,100968.64
2018-12-13T04:23:19.375Z,100971.12
2018-12-13T04:23:56.232Z,100975.99
2018-12-13T04:24:33.614Z,100965.61
2018-12-13T04:25:10.475Z,100967.41
2018-12-13T04:25:47.370Z,100969.02
2018-12-13T04:26:24.269Z,100959.36
2018-12-13T04:27:01.199Z,100956.88
2018-12-13T04:27:38.884Z,100957.85
2018-12-13T04:28:15.680Z,100955.14
2018-12-13T04:28:52.548Z,100957.22
2018-12-13T04:29:29.338Z,100957.95
2018-12-13T04:30:06.547Z,100958.70
2018-12-13T04:30:43.460Z,100958.87
2018-12-13T04:31:20.278Z,100954.96
2018-12-13T04:31:57.136Z,100961.69
2018-12-13T04:32:34.041Z,100958.44
2018-12-13T04:33:10.916Z,100959.80
2018-12-13T04:33:47.736Z,100955.40
2018-12-13T04:34:24.723Z,100960.84
2018-12-13T04:35:01.587Z,100960.45
2018-12-13T04:35:38.483Z,100962.53
2018-12-13T04:36:15.406Z,100961.09
2018-12-13T04:36:52.198Z,100955.29
2018-12-13T04:37:35.070Z,100956.65
2018-12-13T04:38:08.257Z,100959.37
2018-12-13T04:38:45.207Z,100952.56
2018-12-13T04:39:22.088Z,100953.69
2018-12-13T04:39:58.890Z,100951.58
2018-12-13T04:40:35.818Z,100958.13
2018-12-13T04:41:12.582Z,100956.92
2018-12-13T04:41:49.410Z,100954.59
2018-12-13T04:42:26.341Z,100953.28
2018-12-13T04:43:03.180Z,100951.52
2018-12-13T04:43:39.941Z,100949.19
2018-12-13T04:44:16.882Z,100956.10
2018-12-13T04:44:53.800Z,100944.75
2018-12-13T04:45:30.771Z,100949.45
2018-12-13T04:46:07.734Z,100946.25
2018-12-13T04:46:44.832Z,100944.66
2018-12-13T04:47:21.769Z,100948.73
2018-12-13T04:47:58.534Z,100946.89
2018-12-13T04:48:35.300Z,100950.16
2018-12-13T04:49:12.021Z,100944.80
2018-12-13T04:49:48.960Z,100945.67
2018-12-13T04:50:25.798Z,100943.59
2018-12-13T04:51:02.756Z,100951.22
2018-12-13T04:51:39.708Z,100949.13
2018-12-13T04:52:16.597Z,100943.36
2018-12-13T04:52:53.520Z,100947.19
2018-12-13T04:53:30.425Z,100952.45
2018-12-13T04:54:07.258Z,100953.56
2018-12-13T04:54:44.151Z,100950.33
2018-12-13T04:55:21.116Z,100952.25
2018-12-13T04:55:58.475Z,100949.64
2018-12-13T04:56:35.362Z,100952.31
2018-12-13T04:57:12.237Z,100947.20
2018-12-13T04:57:49.145Z,100952.39
2018-12-13T04:58:25.906Z,100952.14
2018-12-13T04:59:02.774Z,100945.35
2018-12-13T04:59:39.540Z,100943.75
2018-12-13T05:00:16.391Z,100955.10
2018-12-13T05:00:53.197Z,100951.03
2018-12-13T05:01:30.117Z,100950.47
2018-12-13T05:02:07.010Z,100947.20
2018-12-13T05:02:43.962Z,100948.31
2018-12-13T05:03:20.878Z,100949.36
2018-12-13T05:03:57.719Z,100946.95
2018-12-13T05:04:34.747Z,100938.56
2018-12-13T05:05:11.641Z,100947.58
2018-12-13T05:05:48.645Z,100950.05
2018-12-13T05:06:25.703Z,100948.69
2018-12-13T05:07:02.905Z,100945.42
2018-12-13T05:07:41.905Z,100947.02
2018-12-13T05:08:19.259Z,100948.69
2018-12-13T05:08:56.341Z,100945.98
2018-12-13T05:09:33.257Z,100937.09
2018-12-13T05:10:11.358Z,100941.41
2018-12-13T05:10:55.777Z,100941.20
2018-12-13T05:11:32.562Z,100940.16
2018-12-13T05:12:09.346Z,100943.98
2018-12-13T05:12:46.202Z,100938.07
2018-12-13T05:13:23.155Z,100937.58
2018-12-13T05:13:59.993Z,100935.42
2018-12-13T05:14:36.811Z,100938.45
2018-12-13T05:15:13.687Z,100939.31
2018-12-13T05:15:50.594Z,100933.64
2018-12-13T05:16:27.506Z,100936.98
2018-12-13T05:17:04.231Z,100935.31
2018-12-13T05:17:41.114Z,100929.56
2018-12-13T05:18:18.214Z,100933.40
2018-12-13T05:18:55.107Z,100934.20
2018-12-13T05:19:32.022Z,100927.72
2018-12-13T05:20:08.920Z,100932.34
2018-12-13T05:20:45.784Z,100923.65
2018-12-13T05:21:22.937Z,100925.80
2018-12-13T05:21:59.715Z,100922.23
2018-12-13T05:22:37.596Z,100926.78
2018-12-13T05:23:14.639Z,100925.98
2018-12-13T05:23:51.528Z,100925.12
2018-12-13T05:24:28.366Z,100924.00
2018-12-13T05:25:05.619Z,100922.34
2018-12-13T05:25:42.556Z,100921.78
2018-12-13T05:26:19.476Z,100920.91
2018-12-13T05:26:56.362Z,100916.03
2018-12-13T05:27:34.111Z,100914.61
2018-12-13T05:28:11.023Z,100914.05
2018-12-13T05:28:47.909Z,100913.25
2018-12-13T05:29:24.847Z,100912.41
2018-12-13T05:30:01.786Z,100909.94
2018-12-13T05:30:38.631Z,100908.20
2018-12-13T05:31:15.633Z,100909.56
2018-12-13T05:31:53.411Z,100906.22
2018-12-13T05:32:30.261Z,100911.89
2018-12-13T05:33:07.209Z,100906.70
2018-12-13T05:33:44.103Z,100905.83
2018-12-13T05:34:21.016Z,100908.55
2018-12-13T05:34:57.838Z,100899.04
2018-12-13T05:35:34.706Z,100892.25
2018-12-13T05:36:11.707Z,100901.13
2018-12-13T05:36:48.573Z,100897.30
2018-12-13T05:37:25.432Z,100900.02
2018-12-13T05:38:02.400Z,100900.50
2018-12-13T05:38:39.321Z,100899.38
2018-12-13T05:39:16.257Z,100895.27
2018-12-13T05:39:53.139Z,100894.71
2018-12-13T05:40:29.925Z,100894.08
2018-12-13T05:41:06.908Z,100892.44
2018-12-13T05:41:43.898Z,100888.30
2018-12-13T05:42:20.660Z,100890.13
2018-12-13T05:42:57.481Z,100889.89
2018-12-13T05:43:34.339Z,100889.58
2018-12-13T05:44:11.131Z,100885.50
2018-12-13T05:44:48.095Z,100887.34
2018-12-13T05:45:24.924Z,100886.47
2018-12-13T05:46:01.819Z,100885.35
2018-12-13T05:46:38.651Z,100886.78
2018-12-13T05:47:15.649Z,100881.35
2018-12-13T05:47:52.563Z,100879.44
2018-12-13T05:48:33.932Z,100879.44
2018-12-13T05:49:10.787Z,100878.63
2018-12-13T05:49:47.781Z,100870.97
2018-12-13T05:50:24.576Z,100875.28
2018-12-13T05:51:01.497Z,100871.45
2018-12-13T05:51:38.377Z,100870.09
2018-12-13T05:52:15.276Z,100869.85
2018-12-13T05:52:52.168Z,100866.02
2018-12-13T05:53:28.973Z,100859.23
2018-12-13T05:54:05.864Z,100860.34
2018-12-13T05:54:42.784Z,100863.30
2018-12-13T05:55:19.681Z,100851.08
2018-12-13T05:55:56.549Z,100854.59
2018-12-13T05:56:33.600Z,100852.44
2018-12-13T05:57:10.429Z,100850.34
2018-12-13T05:57:47.325Z,100849.06
2018-12-13T05:58:24.181Z,100844.19
2018-12-13T05:59:00.971Z,100850.98
2018-12-13T05:59:37.816Z,100842.59
2018-12-13T06:00:14.814Z,100852.09
2018-12-13T06:00:51.666Z,100846.66
2018-12-13T06:01:28.679Z,100846.66
2018-12-13T06:02:05.713Z,100847.22
2018-12-13T06:02:42.482Z,100838.03
2018-12-13T06:03:19.436Z,100842.34
2018-12-13T06:03:56.305Z,100845.45
2018-12-13T06:04:33.466Z,100844.94
2018-12-13T06:05:10.412Z,100844.45
2018-12-13T06:05:47.225Z,100842.47
2018-12-13T06:06:24.080Z,100838.66
2018-12-13T06:07:00.931Z,100840.51
2018-12-13T06:07:37.894Z,100836.11
2018-12-13T06:08:14.795Z,100835.80
2018-12-13T06:08:51.937Z,100833.56
2018-12-13T06:09:28.943Z,100831.33
2018-12-13T06:10:05.950Z,100825.89
2018-12-13T06:10:42.809Z,100823.50
2018-12-13T06:11:19.646Z,100824.93
2018-12-13T06:11:58.729Z,100822.77
2018-12-13T06:12:35.812Z,100821.73
2018-12-13T06:13:12.907Z,100819.02
2018-12-13T06:13:49.781Z,100821.73
2018-12-13T06:14:26.757Z,100821.90
2018-12-13T06:15:03.590Z,100812.70
2018-12-13T06:15:40.511Z,100814.06
2018-12-13T06:16:17.379Z,100815.98
2018-12-13T06:16:54.218Z,100814.06
2018-12-13T06:17:31.105Z,100814.86
2018-12-13T06:18:07.909Z,100814.55
2018-12-13T06:18:44.959Z,100810.23
2018-12-13T06:19:26.714Z,100806.87
2018-12-13T06:20:00.879Z,100805.84
2018-12-13T06:20:37.785Z,100802.48
2018-12-13T06:21:14.633Z,100800.01
2018-12-13T06:21:51.568Z,100795.61
2018-12-13T06:22:28.499Z,100802.41
2018-12-13T06:23:05.352Z,100794.73
2018-12-13T06:23:42.285Z,100799.56
2018-12-13T06:24:19.104Z,100792.50
2018-12-13T06:24:55.925Z,100793.86
2018-12-13T06:25:32.804Z,100783.26
2018-12-13T06:26:09.814Z,100782.37
2018-12-13T06:26:46.683Z,100779.34
2018-12-13T06:27:23.534Z,100777.19
2018-12-13T06:28:01.319Z,100776.30
2018-12-13T06:28:38.103Z,100778.78
2018-12-13T06:29:14.960Z,100774.70
2018-12-13T06:29:51.856Z,100775.34
2018-12-13T06:30:28.723Z,100774.39
2018-12-13T06:31:06.636Z,100779.91
2018-12-13T06:31:43.455Z,100774.33
2018-12-13T06:32:20.361Z,100780.08
2018-12-13T06:32:57.248Z,100776.89
2018-12-13T06:33:34.092Z,100775.39
2018-12-13T06:34:10.931Z,100768.51
2018-12-13T06:34:47.674Z,100770.99
2018-12-13T06:35:24.584Z,100769.06
2018-12-13T06:36:01.391Z,100765.64
2018-12-13T06:36:38.152Z,100771.07
2018-12-13T06:37:14.991Z,100769.72
2018-12-13T06:37:51.843Z,100769.72
2018-12-13T06:38:28.762Z,100763.16
2018-12-13T06:39:06.925Z,100764.75
2018-12-13T06:39:43.906Z,100771.47
2018-12-13T06:40:20.853Z,100763.63
2018-12-13T06:40:57.817Z,100757.63
2018-12-13T06:41:34.687Z,100757.72
2018-12-13T06:42:12.655Z,100762.36
2018-12-13T06:42:49.555Z,100760.58
2018-12-13T06:43:26.353Z,100749.63
2018-12-13T06:44:03.233Z,100758.16
2018-12-13T06:44:40.088Z,100757.67
2018-12-13T06:45:16.860Z,100757.20
2018-12-13T06:45:53.562Z,100756.48
2018-12-13T06:46:30.352Z,100754.64
2018-12-13T06:47:07.339Z,100757.12
2018-12-13T06:47:44.175Z,100754.16
2018-12-13T06:48:21.077Z,100756.88
2018-12-13T06:48:57.883Z,100754.24
2018-12-13T06:49:34.642Z,100755.28
2018-12-13T06:50:11.621Z,100752.89
2018-12-13T06:50:48.449Z,100753.84
2018-12-13T06:51:25.153Z,100748.66
2018-12-13T06:52:02.112Z,100747.38
2018-12-13T06:52:38.989Z,100747.11
2018-12-13T06:53:15.985Z,100750.38
2018-12-13T06:53:52.885Z,100747.38
2018-12-13T06:54:29.839Z,100745.45
2018-12-13T06:55:07.046Z,100743.22
2018-12-13T06:55:44.776Z,100738.18
2018-12-13T06:56:21.664Z,100734.50
2018-12-13T06:56:58.528Z,100738.81
2018-12-13T06:57:35.335Z,100730.09
2018-12-13T06:58:12.187Z,100728.42
2018-12-13T06:58:49.034Z,100731.05
2018-12-13T06:59:26.007Z,100722.81
2018-12-13T07:00:02.991Z,100722.81
2018-12-13T07:00:39.897Z,100726.28
2018-12-13T07:01:16.769Z,100720.10
2018-12-13T07:01:53.688Z,100721.30
2018-12-13T07:02:30.647Z,100717.55